Time;durP1;ratioP1;P1;durP2;ratioP2;P2;SDS_P1;SDS_P2;PMS_P1;PMS_P2;Temp;Humidity;BMP_temperature;BMP_pressure;BME280_temperature;BME280_humidity;BME280_pressure;Samples;Min_cycle;Max_cycle;Signal;HPM_P1;HPM_P2
2022/08/29 00:04:21;;;;;;;2.88;1.30;;;;;;;19.99;44.14;100444.88;10338226;28;20056;-72
2022/08/29 00:09:23;;;;;;;3.53;1.15;;;;;;;19.94;44.00;100446.25;10345851;28;20061;-74
2022/08/29 00:14:24;;;;;;;5.25;1.10;;;;;;;19.89;44.25;100439.69;10337039;28;20060;-73
2022/08/29 00:19:26;;;;;;;5.60;1.25;;;;;;;19.75;44.54;100438.59;10333901;28;20064;-71
2022/08/29 00:24:27;;;;;;;3.42;1.20;;;;;;;19.82;44.44;100452.25;10341070;28;20045;-70
2022/08/29 00:29:29;;;;;;;4.22;1.70;;;;;;;19.83;43.98;100448.53;10335168;28;20140;-72
2022/08/29 00:34:30;;;;;;;5.82;1.65;;;;;;;19.77;44.23;100450.94;10334942;28;20050;-71
2022/08/29 00:39:31;;;;;;;4.32;1.38;;;;;;;19.71;44.51;100453.47;10332467;28;20519;-73
2022/08/29 00:44:33;;;;;;;5.97;0.95;;;;;;;19.64;44.03;100444.41;10334450;28;20080;-73
2022/08/29 00:49:48;;;;;;;2.92;1.27;;;;;;;19.57;45.34;100444.28;10334746;28;20060;-73
2022/08/29 00:54:52;;;;;;;2.97;1.00;;;;;;;19.51;45.41;100459.31;10334262;28;20042;-74
2022/08/29 00:59:54;;;;;;;3.28;1.38;;;;;;;19.49;45.54;100461.34;10334911;28;20136;-70
2022/08/29 01:04:56;;;;;;;5.80;1.70;;;;;;;19.49;45.63;100465.94;10332351;28;20075;-73
2022/08/29 01:09:58;;;;;;;4.53;1.65;;;;;;;19.39;45.64;100456.16;10331545;28;20137;-70
2022/08/29 01:15:08;;;;;;;5.75;1.40;;;;;;;19.31;45.55;100461.63;10334078;28;20141;-72
2022/08/29 01:20:31;;;;;;;7.93;1.60;;;;;;;19.26;45.37;100461.31;10330997;28;20050;-72
2022/08/29 01:25:38;;;;;;;3.53;1.10;;;;;;;19.15;45.49;100456.28;10333002;28;20099;-73
2022/08/29 01:30:59;;;;;;;5.03;1.48;;;;;;;19.12;46.04;100453.94;10329896;28;20056;-73
2022/08/29 01:36:01;;;;;;;2.47;1.23;;;;;;;19.07;46.14;100462.56;10329177;28;20148;-70
2022/08/29 01:41:03;;;;;;;4.40;1.83;;;;;;;19.01;45.71;100472.19;10330916;28;20788;-71
2022/08/29 01:46:04;;;;;;;2.40;1.30;;;;;;;18.96;46.93;100474.56;10330403;28;20049;-72
2022/08/29 01:51:07;;;;;;;3.10;1.33;;;;;;;18.90;47.16;100477.97;10330965;28;20173;-72
2022/08/29 01:56:28;;;;;;;5.32;1.60;;;;;;;18.95;46.57;100478.28;10330292;28;20049;-73
2022/08/29 02:01:32;;;;;;;2.90;1.20;;;;;;;18.84;47.52;100483.97;10331198;28;20406;-71
2022/08/29 02:06:35;;;;;;;2.28;1.15;;;;;;;18.83;46.73;100482.31;10325562;28;20188;-71
2022/08/29 02:11:38;;;;;;;3.40;1.07;;;;;;;18.81;47.24;100487.88;10330288;28;20089;-71
2022/08/29 02:16:40;;;;;;;2.13;1.40;;;;;;;18.73;47.15;100480.66;10331112;28;20164;-72
2022/08/29 02:21:42;;;;;;;2.47;1.20;;;;;;;18.69;47.43;100487.41;10331004;28;20050;-71
2022/08/29 02:26:43;;;;;;;3.45;1.60;;;;;;;18.63;47.27;100490.78;10333189;28;20050;-72
2022/08/29 02:31:45;;;;;;;5.93;1.23;;;;;;;18.62;47.47;100491.78;10329910;28;20050;-71
2022/08/29 02:36:47;;;;;;;6.53;2.28;;;;;;;18.47;47.79;100488.09;10340367;28;20057;-72
2022/08/29 02:41:49;;;;;;;4.07;1.20;;;;;;;18.49;47.38;100496.84;10339896;28;20049;-72
2022/08/29 02:46:50;;;;;;;2.53;1.05;;;;;;;18.40;47.29;100496.00;10343824;28;20061;-73
2022/08/29 02:51:52;;;;;;;4.80;1.58;;;;;;;18.31;47.82;100489.78;10339498;28;20592;-71
2022/08/29 02:56:53;;;;;;;2.65;1.48;;;;;;;18.26;47.92;100486.75;10339993;28;20046;-71
2022/08/29 03:01:55;;;;;;;3.42;1.70;;;;;;;18.19;48.04;100488.41;10339512;28;20187;-73
2022/08/29 03:06:56;;;;;;;4.07;1.77;;;;;;;18.09;48.59;100495.81;10337454;28;20104;-70
2022/08/29 03:11:58;;;;;;;3.03;1.63;;;;;;;17.92;49.11;100493.09;10336748;28;20049;-74
2022/08/29 03:17:00;;;;;;;5.22;1.85;;;;;;;17.94;48.67;100488.41;10338770;28;20159;-72
2022/08/29 03:22:01;;;;;;;6.80;2.08;;;;;;;17.88;48.77;100485.50;10337117;28;20101;-74
2022/08/29 03:27:03;;;;;;;5.28;1.65;;;;;;;17.81;48.90;100485.31;10336074;28;20368;-73
2022/08/29 03:32:04;;;;;;;4.40;1.80;;;;;;;17.83;48.98;100492.25;10341873;28;20436;-74
2022/08/29 03:37:06;;;;;;;3.67;1.77;;;;;;;17.79;49.44;100495.41;10344054;28;20315;-74
2022/08/29 03:42:07;;;;;;;5.13;2.10;;;;;;;17.75;49.36;100502.13;10335996;28;20681;-71
2022/08/29 03:47:09;;;;;;;2.97;1.50;;;;;;;17.65;49.41;100495.06;10336009;28;20058;-74
2022/08/29 03:52:10;;;;;;;4.07;1.80;;;;;;;17.62;49.82;100505.28;10333133;28;20572;-73
2022/08/29 03:57:12;;;;;;;4.68;2.70;;;;;;;17.56;49.55;100496.00;10333653;28;20062;-71
2022/08/29 04:02:14;;;;;;;3.72;1.65;;;;;;;17.49;50.48;100489.63;10328304;28;20060;-72
2022/08/29 04:07:16;;;;;;;7.05;2.17;;;;;;;17.54;50.33;100487.25;10331121;28;20108;-74
2022/08/29 04:12:17;;;;;;;7.38;3.28;;;;;;;17.56;49.98;100492.47;10330421;28;20046;-74
2022/08/29 04:17:19;;;;;;;5.00;2.40;;;;;;;17.56;50.17;100493.31;10331453;28;20062;-72
2022/08/29 04:22:20;;;;;;;4.50;1.88;;;;;;;17.43;50.29;100495.63;10332942;28;20045;-72
2022/08/29 04:27:22;;;;;;;4.38;1.90;;;;;;;17.39;50.67;100505.88;10333791;28;20501;-70
2022/08/29 04:32:23;;;;;;;3.85;2.28;;;;;;;17.28;51.00;100498.13;10332452;28;20056;-73
2022/08/29 04:37:25;;;;;;;5.28;2.85;;;;;;;17.27;51.01;100508.00;10331054;28;20128;-74
2022/08/29 04:42:26;;;;;;;5.53;1.98;;;;;;;17.21;51.30;100511.34;10334709;28;20037;-72
2022/08/29 04:47:27;;;;;;;6.57;2.28;;;;;;;17.07;51.85;100502.03;10331094;28;20056;-72
2022/08/29 04:52:29;;;;;;;4.93;2.30;;;;;;;17.11;51.58;100510.63;10304232;28;20064;-72
2022/08/29 04:57:30;;;;;;;7.10;2.60;;;;;;;17.07;52.05;100517.31;10309486;28;20365;-71
2022/08/29 05:02:32;;;;;;;4.15;2.40;;;;;;;16.91;51.79;100513.53;10308022;28;20092;-72
2022/08/29 05:07:33;;;;;;;10.88;2.70;;;;;;;16.93;51.98;100522.31;10305824;28;20439;-70
2022/08/29 05:12:38;;;;;;;4.30;2.40;;;;;;;16.96;52.51;100531.88;10308130;28;21860;-74
2022/08/29 05:17:40;;;;;;;6.10;2.65;;;;;;;16.94;53.18;100534.72;10314016;28;20057;-72
2022/08/29 05:22:42;;;;;;;8.55;2.38;;;;;;;17.03;52.37;100542.84;10312059;28;20129;-74
2022/08/29 05:27:43;;;;;;;4.05;2.15;;;;;;;17.04;52.27;100528.38;10310631;28;20049;-73
2022/08/29 05:32:44;;;;;;;4.38;2.35;;;;;;;17.07;52.64;100541.50;10318725;28;20411;-72
2022/08/29 05:37:46;;;;;;;3.75;2.20;;;;;;;17.20;52.33;100550.00;10312436;28;20049;-72
2022/08/29 05:42:47;;;;;;;7.32;2.58;;;;;;;17.25;52.21;100544.13;10314238;28;20058;-73
2022/08/29 05:47:49;;;;;;;7.65;2.67;;;;;;;17.22;52.74;100548.00;10320913;28;20511;-72
2022/08/29 05:52:51;;;;;;;5.22;2.10;;;;;;;17.31;52.63;100552.44;10328016;28;20054;-73
2022/08/29 05:57:53;;;;;;;3.47;2.42;;;;;;;17.37;52.89;100544.72;10324535;28;20060;-72
2022/08/29 06:02:54;;;;;;;3.40;2.45;;;;;;;17.45;52.12;100548.28;10329261;28;21643;-72
2022/08/29 06:07:56;;;;;;;6.30;2.55;;;;;;;17.53;54.01;100552.84;10309345;28;20129;-72
2022/08/29 06:12:57;;;;;;;6.50;2.58;;;;;;;17.76;53.81;100552.25;10312206;28;20069;-71
2022/08/29 06:17:59;;;;;;;4.80;2.13;;;;;;;17.91;51.98;100558.75;10307595;28;20908;-72
2022/08/29 06:23:00;;;;;;;4.90;2.42;;;;;;;18.12;52.26;100554.75;10308492;28;20058;-73
2022/08/29 06:28:02;;;;;;;10.00;2.85;;;;;;;18.25;51.31;100565.88;10307875;28;20049;-74
2022/08/29 06:33:03;;;;;;;6.43;2.75;;;;;;;18.39;51.06;100561.72;10306197;28;20483;-73
2022/08/29 06:38:05;;;;;;;3.65;1.92;;;;;;;18.61;52.47;100579.06;10309415;28;20038;-73
2022/08/29 06:43:13;;;;;;;5.30;2.53;;;;;;;18.77;50.22;100585.47;10306667;28;20049;-71
2022/08/29 06:48:15;;;;;;;6.55;2.40;;;;;;;18.94;49.45;100575.53;10305982;28;20060;-74
2022/08/29 06:53:17;;;;;;;3.83;2.10;;;;;;;19.07;49.79;100570.47;10300925;28;20050;-72
2022/08/29 06:58:33;;;;;;;5.05;2.42;;;;;;;19.06;50.97;100593.06;10310426;28;20057;-73
2022/08/29 07:03:35;;;;;;;8.50;2.33;;;;;;;19.20;48.78;100591.50;10306587;28;20115;-72
2022/08/29 07:08:37;;;;;;;6.68;2.70;;;;;;;19.37;49.72;100585.06;10307900;28;20064;-73
2022/08/29 07:13:55;;;;;;;5.07;2.20;;;;;;;19.64;48.84;100587.53;10304055;28;20258;-73
2022/08/29 07:18:57;;;;;;;6.43;2.28;;;;;;;19.89;48.72;100585.56;10312689;28;20046;-72
2022/08/29 07:23:59;;;;;;;3.72;2.13;;;;;;;20.12;47.23;100581.06;10315958;28;20049;-72
2022/08/29 07:29:04;;;;;;;4.13;2.00;;;;;;;20.42;46.63;100597.41;10314120;28;20697;-73
2022/08/29 07:34:06;;;;;;;5.90;2.40;;;;;;;20.69;45.42;100592.53;10314026;28;20061;-74
2022/08/29 07:39:12;;;;;;;4.60;1.70;;;;;;;20.89;45.55;100592.00;10316013;28;20064;-71
2022/08/29 07:44:14;;;;;;;4.03;2.40;;;;;;;20.99;44.72;100598.84;10314036;28;20056;-75
2022/08/29 07:49:15;;;;;;;3.75;1.63;;;;;;;21.42;43.74;100598.22;10311899;28;20078;-73
2022/08/29 07:54:17;;;;;;;8.48;2.15;;;;;;;21.66;43.29;100590.88;10313365;28;20691;-73
2022/08/29 07:59:20;;;;;;;4.18;1.80;;;;;;;21.68;43.44;100588.84;10317099;28;20042;-73
2022/08/29 08:04:21;;;;;;;7.32;2.70;;;;;;;21.75;42.72;100587.03;10311828;28;20058;-73
2022/08/29 08:09:24;;;;;;;6.33;1.90;;;;;;;22.05;42.51;100581.56;10314985;28;20061;-76
2022/08/29 08:14:26;;;;;;;8.20;1.90;;;;;;;22.29;41.72;100590.38;10316042;28;20050;-74
2022/08/29 08:19:36;;;;;;;3.58;1.83;;;;;;;22.77;41.79;100585.22;10310599;28;20068;-74
2022/08/29 08:24:38;;;;;;;3.23;1.70;;;;;;;23.04;40.72;100585.44;10301890;28;20054;-72
2022/08/29 08:29:39;;;;;;;4.85;2.03;;;;;;;23.05;40.08;100595.28;10313857;28;20552;-74
2022/08/29 08:34:41;;;;;;;3.63;1.70;;;;;;;23.29;39.89;100589.41;10308083;28;20057;-74
2022/08/29 08:39:43;;;;;;;4.60;1.27;;;;;;;23.36;40.10;100588.59;10306152;28;20052;-74
2022/08/29 08:45:16;;;;;;;4.45;1.80;;;;;;;23.48;39.68;100592.47;10306355;28;20301;-74
2022/08/29 08:50:33;;;;;;;4.47;1.55;;;;;;;23.49;40.38;100591.41;10310280;28;20060;-75
2022/08/29 08:55:41;;;;;;;5.85;2.38;;;;;;;23.26;39.18;100600.66;10305910;28;20054;-74
2022/08/29 09:00:53;;;;;;;6.07;1.90;;;;;;;23.62;39.50;100602.34;10313409;28;20057;-73
2022/08/29 09:06:09;;;;;;;6.87;2.10;;;;;;;23.83;39.98;100595.97;10308908;28;20054;-76
2022/08/29 09:11:44;;;;;;;7.13;2.10;;;;;;;23.94;38.47;100597.28;10305064;28;20079;-73
2022/08/29 09:16:49;;;;;;;4.82;2.10;;;;;;;23.94;38.73;100586.41;10312649;28;20084;-74
2022/08/29 09:21:54;;;;;;;4.28;2.00;;;;;;;24.21;37.87;100586.50;10313510;28;20501;-71
2022/08/29 09:26:55;;;;;;;6.97;1.70;;;;;;;24.76;38.35;100585.56;10313805;28;20077;-73
2022/08/29 09:32:13;;;;;;;6.82;2.15;;;;;;;25.58;35.50;100581.50;10309332;28;20057;-75
2022/08/29 09:37:25;;;;;;;5.55;1.48;;;;;;;25.93;34.86;100589.31;10310134;28;20062;-72
2022/08/29 09:42:36;;;;;;;5.25;1.75;;;;;;;26.27;33.53;100575.50;10305314;28;20207;-73
2022/08/29 09:47:38;;;;;;;3.33;1.45;;;;;;;26.15;34.76;100577.28;10321894;28;20042;-74
2022/08/29 09:53:00;;;;;;;5.68;2.22;;;;;;;26.17;34.40;100570.53;10308981;28;20054;-73
2022/08/29 09:58:16;;;;;;;5.10;1.85;;;;;;;26.54;34.09;100581.66;10306391;28;20057;-72
2022/08/29 10:03:21;;;;;;;6.72;2.03;;;;;;;27.27;33.22;100577.44;10314199;28;20064;-73
2022/08/29 10:08:33;;;;;;;5.75;1.88;;;;;;;27.75;31.86;100578.59;10313654;28;20058;-73
2022/08/29 10:13:46;;;;;;;5.28;1.20;;;;;;;28.16;30.21;100573.47;10311516;28;20360;-74
2022/08/29 10:18:56;;;;;;;2.95;1.63;;;;;;;28.89;29.66;100566.03;10311188;28;20057;-72
2022/08/29 10:24:29;;;;;;;4.60;1.13;;;;;;;32.76;24.52;100555.44;10306141;28;20519;-76
2022/08/29 10:29:43;;;;;;;3.08;1.02;;;;;;;34.66;20.73;100540.69;10305743;28;20046;-72
2022/08/29 10:35:28;;;;;;;5.30;1.50;;;;;;;34.53;21.59;100553.94;10306611;28;20139;-75
2022/08/29 10:40:48;;;;;;;2.70;1.38;;;;;;;31.51;24.47;100556.31;10307957;28;20065;-77
2022/08/29 10:46:14;;;;;;;6.28;1.25;;;;;;;32.11;24.83;100554.56;10307688;28;20073;-78
2022/08/29 10:51:41;;;;;;;3.00;1.45;;;;;;;35.38;19.77;100543.31;10301782;28;20153;-78
2022/08/29 10:56:47;;;;;;;2.38;0.80;;;;;;;37.07;19.15;100530.19;10314350;28;20066;-76
2022/08/29 11:01:56;;;;;;;3.33;1.15;;;;;;;39.83;16.95;100532.56;10317520;28;20050;-76
2022/08/29 11:07:06;;;;;;;4.28;1.42;;;;;;;39.93;15.55;100535.13;10315918;28;20203;-77
2022/08/29 11:12:33;;;;;;;2.92;1.10;;;;;;;41.08;14.80;100527.19;10317422;28;20046;-77
2022/08/29 11:17:39;;;;;;;2.75;1.08;;;;;;;41.63;13.84;100514.69;10316924;28;20088;-75
2022/08/29 11:23:00;;;;;;;2.50;1.10;;;;;;;41.84;14.04;100514.06;10317820;28;20046;-75
2022/08/29 11:28:22;;;;;;;4.68;1.23;;;;;;;40.25;15.30;100506.22;10314002;28;20410;-76
2022/08/29 11:33:42;;;;;;;2.22;0.90;;;;;;;40.71;14.27;100508.97;10312472;28;20050;-76
2022/08/29 11:39:14;;;;;;;3.88;1.02;;;;;;;39.17;15.86;100491.94;10313758;28;20097;-76
2022/08/29 11:44:34;;;;;;;3.17;1.20;;;;;;;38.84;16.74;100485.63;10330065;28;20062;-78
2022/08/29 11:49:45;;;;;;;3.47;0.90;;;;;;;39.97;15.83;100493.50;10311259;28;20065;-77
2022/08/29 11:54:53;;;;;;;2.97;1.05;;;;;;;40.68;14.45;100490.06;10313650;28;20096;-75
2022/08/29 11:59:56;;;;;;;2.92;1.05;;;;;;;43.05;12.49;100477.75;10311585;28;20050;-78
2022/08/29 12:05:19;;;;;;;2.80;0.80;;;;;;;42.44;12.94;100470.41;10314137;28;20045;-77
2022/08/29 12:10:23;;;;;;;5.47;1.30;;;;;;;43.25;12.16;100454.59;10308823;28;20058;-74
2022/08/29 12:15:40;;;;;;;4.18;0.98;;;;;;;41.41;13.83;100461.75;10311146;28;20112;-77
2022/08/29 12:20:45;;;;;;;3.33;1.00;;;;;;;41.21;14.00;100452.00;10307154;28;20092;-78
2022/08/29 12:25:50;;;;;;;4.10;1.10;;;;;;;39.43;16.24;100457.97;10312842;28;20053;-76
2022/08/29 12:31:39;;;;;;;3.85;1.23;;;;;;;36.94;17.36;100447.69;10312915;28;20058;-75
2022/08/29 12:37:26;;;;;;;1.45;0.77;;;;;;;35.88;18.04;100444.53;10314057;28;20050;-77
2022/08/29 12:42:36;;;;;;;2.83;1.02;;;;;;;35.29;18.87;100448.19;10312151;28;20046;-76
2022/08/29 12:47:53;;;;;;;5.47;1.05;;;;;;;35.00;20.56;100446.91;10312219;28;20049;-78
2022/08/29 12:53:22;;;;;;;2.78;1.00;;;;;;;34.92;20.20;100438.34;10306510;28;20525;-79
2022/08/29 12:58:43;;;;;;;3.70;1.25;;;;;;;34.53;20.27;100429.59;10307126;28;20425;-76
2022/08/29 13:04:04;;;;;;;2.70;1.52;;;;;;;34.07;20.92;100415.00;10309071;28;20050;-76
2022/08/29 13:09:06;;;;;;;4.00;1.05;;;;;;;33.55;21.06;100411.34;10307244;28;20776;-76
2022/08/29 13:14:10;;;;;;;3.72;1.15;;;;;;;33.17;20.97;100407.91;10312656;28;20052;-74
2022/08/29 13:19:20;;;;;;;2.10;0.90;;;;;;;32.28;21.89;100393.91;10309015;28;20129;-77
2022/08/29 13:24:21;;;;;;;2.80;1.50;;;;;;;32.40;22.06;100387.13;10309790;28;20046;-77
2022/08/29 13:29:32;;;;;;;4.65;1.10;;;;;;;32.34;22.25;100395.59;10310073;28;20730;-74
2022/08/29 13:34:35;;;;;;;3.97;1.30;;;;;;;31.78;22.79;100396.78;10310246;28;20171;-75
2022/08/29 13:39:40;;;;;;;2.97;1.23;;;;;;;31.69;23.03;100396.47;10313887;28;20121;-75
2022/08/29 13:44:48;;;;;;;2.13;0.90;;;;;;;31.26;23.00;100395.44;10306415;28;20156;-73
2022/08/29 13:49:54;;;;;;;3.42;1.08;;;;;;;30.87;23.83;100395.50;10298533;28;21395;-76
2022/08/29 13:54:56;;;;;;;2.60;1.05;;;;;;;30.84;23.21;100385.84;10307233;28;20099;-74
2022/08/29 13:59:57;;;;;;;4.22;1.17;;;;;;;30.61;23.13;100388.81;10305439;28;20365;-72
2022/08/29 14:05:00;;;;;;;3.15;1.08;;;;;;;30.23;24.33;100377.53;10314481;28;20085;-76
2022/08/29 14:10:04;;;;;;;3.25;1.10;;;;;;;30.14;24.09;100381.78;10327987;28;20054;-78
2022/08/29 14:15:08;;;;;;;4.63;1.00;;;;;;;30.10;24.42;100380.63;10317594;28;20472;-75
2022/08/29 14:20:11;;;;;;;2.92;1.50;;;;;;;30.00;24.34;100364.84;10312359;28;20133;-75
2022/08/29 14:25:15;;;;;;;2.45;1.23;;;;;;;29.74;24.31;100374.53;10307756;28;20050;-74
2022/08/29 14:30:19;;;;;;;4.50;1.27;;;;;;;29.45;25.20;100366.34;10315269;28;21635;-78
2022/08/29 14:35:21;;;;;;;5.30;1.98;;;;;;;29.11;26.13;100358.00;10318562;28;20064;-77
2022/08/29 14:40:32;;;;;;;3.35;1.50;;;;;;;28.77;25.87;100366.09;10335249;28;20057;-73
2022/08/29 14:45:34;;;;;;;3.13;1.40;;;;;;;28.50;26.00;100361.09;10327581;28;20276;-73
2022/08/29 14:50:35;;;;;;;2.67;1.17;;;;;;;28.35;26.49;100347.91;10334418;28;20072;-76
2022/08/29 14:55:36;;;;;;;2.90;1.10;;;;;;;28.24;26.46;100361.56;10335704;28;20257;-72
2022/08/29 15:00:38;;;;;;;2.73;1.20;;;;;;;27.99;26.58;100355.25;10332889;28;20045;-76
2022/08/29 15:05:41;;;;;;;3.60;1.55;;;;;;;27.70;27.13;100359.72;10326647;28;20046;-75
2022/08/29 15:10:45;;;;;;;5.20;1.08;;;;;;;27.72;26.72;100343.91;10330069;28;20405;-75
2022/08/29 15:15:46;;;;;;;2.40;1.15;;;;;;;27.56;27.52;100336.38;10332348;28;20691;-76
2022/08/29 15:20:47;;;;;;;3.83;1.10;;;;;;;27.48;26.71;100330.19;10335759;28;20061;-74
2022/08/29 15:25:49;;;;;;;2.33;1.23;;;;;;;27.31;27.13;100331.91;10334187;28;20144;-76
2022/08/29 15:30:52;;;;;;;;;;;;;;;27.36;27.51;100329.31;10334952;28;20181;-73
2022/08/29 15:35:53;;;;;;;3.60;1.20;;;;;;;27.03;26.89;100325.13;10332943;28;19976;-76
2022/08/29 15:40:55;;;;;;;2.70;1.05;;;;;;;27.11;27.81;100338.47;10335158;28;20133;-74
2022/08/29 15:45:56;;;;;;;1.35;0.80;;;;;;;27.04;27.99;100335.00;10343649;28;20064;-73
2022/08/29 15:51:00;;;;;;;2.70;1.70;;;;;;;27.06;27.52;100330.13;10317343;28;20162;-76
2022/08/29 15:56:01;;;;;;;3.88;1.10;;;;;;;26.99;27.95;100332.09;10330143;28;20057;-76
2022/08/29 16:01:04;;;;;;;3.20;1.20;;;;;;;26.95;27.71;100334.47;10327546;28;20132;-73
2022/08/29 16:06:05;;;;;;;4.00;1.20;;;;;;;26.90;27.41;100326.16;10325149;28;20049;-71
2022/08/29 16:11:06;;;;;;;3.03;1.20;;;;;;;26.80;27.75;100313.03;10328342;28;20060;-75
2022/08/29 16:16:08;;;;;;;3.80;1.50;;;;;;;26.78;28.29;100325.22;10323929;28;20644;-77
2022/08/29 16:21:09;;;;;;;1.42;1.30;;;;;;;26.71;28.30;100328.06;10335232;28;20049;-74
2022/08/29 16:26:11;;;;;;;3.88;1.58;;;;;;;26.63;28.22;100318.25;10334016;28;20042;-74
2022/08/29 16:31:13;;;;;;;3.30;1.50;;;;;;;26.62;28.41;100313.03;10334814;28;20420;-76
2022/08/29 16:36:16;;;;;;;5.05;1.40;;;;;;;26.56;28.80;100322.94;10331786;28;20102;-75
2022/08/29 16:41:19;;;;;;;2.70;1.40;;;;;;;26.40;28.73;100315.38;10331884;28;20053;-74
2022/08/29 16:46:23;;;;;;;2.67;1.40;;;;;;;26.32;29.45;100321.94;10330157;28;20060;-76
2022/08/29 16:51:26;;;;;;;3.70;1.70;;;;;;;26.24;29.03;100311.31;10328854;28;20100;-76
2022/08/29 16:56:27;;;;;;;4.13;2.00;;;;;;;26.16;29.21;100308.91;10332379;28;20061;-74
2022/08/29 17:01:34;;;;;;;5.43;2.03;;;;;;;26.11;29.33;100307.69;10330246;28;20084;-76
2022/08/29 17:06:35;;;;;;;4.15;1.80;;;;;;;26.04;29.44;100306.91;10330904;28;20069;-75
2022/08/29 17:16:41;;;;;;;5.20;1.50;;;;;;;25.91;30.40;100309.72;10341849;28;20101;-74
2022/08/29 17:21:43;;;;;;;9.13;5.20;;;;;;;25.77;32.36;100309.81;10343582;28;20068;-74
2022/08/29 17:26:46;;;;;;;5.83;2.47;;;;;;;25.59;32.18;100299.69;10326333;28;20052;-74
2022/08/29 17:31:48;;;;;;;4.90;2.30;;;;;;;25.48;32.56;100307.78;10327798;28;20501;-74
2022/08/29 17:36:49;;;;;;;4.15;1.40;;;;;;;25.32;32.85;100303.69;10330697;28;20053;-76
2022/08/29 17:41:51;;;;;;;4.80;1.55;;;;;;;25.16;33.09;100313.16;10327218;28;20057;-75
2022/08/29 17:46:52;;;;;;;5.30;1.98;;;;;;;25.11;33.34;100321.16;10329703;28;20206;-74
2022/08/29 17:51:55;;;;;;;5.38;1.67;;;;;;;24.95;33.19;100319.78;10328464;28;20066;-75
2022/08/29 17:56:58;;;;;;;2.35;1.40;;;;;;;24.89;33.08;100326.91;10328974;28;20790;-74
2022/08/29 18:02:01;;;;;;;4.43;1.90;;;;;;;24.79;33.47;100321.13;10330824;28;20041;-77
2022/08/29 18:07:03;;;;;;;3.63;1.77;;;;;;;24.69;32.60;100316.13;10328783;28;20057;-75
2022/08/29 18:12:04;;;;;;;4.13;1.45;;;;;;;24.58;33.42;100320.34;10324312;28;20664;-75
2022/08/29 18:17:06;;;;;;;4.10;2.05;;;;;;;24.49;33.87;100327.88;10326586;28;20225;-75
2022/08/29 18:22:08;;;;;;;4.72;1.65;;;;;;;24.44;34.07;100326.84;10328021;28;20466;-74
2022/08/29 18:27:09;;;;;;;5.38;2.22;;;;;;;24.33;33.58;100334.59;10328229;28;20037;-74
2022/08/29 18:32:10;;;;;;;3.08;1.52;;;;;;;24.27;33.48;100340.88;10327215;28;20050;-72
2022/08/29 18:37:12;;;;;;;3.00;1.60;;;;;;;24.16;33.41;100333.38;10330227;28;20070;-72
2022/08/29 18:42:14;;;;;;;2.75;1.30;;;;;;;24.07;34.14;100326.50;10326547;28;20060;-75
2022/08/29 18:47:36;;;;;;;1.73;1.00;;;;;;;23.98;33.04;100334.84;10326341;28;20058;-73
2022/08/29 18:52:37;;;;;;;3.53;1.52;;;;;;;23.89;33.78;100344.28;10326650;28;20666;-73
2022/08/29 18:57:38;;;;;;;3.13;1.38;;;;;;;23.76;33.64;100339.63;10315113;28;20129;-76
2022/08/29 19:02:40;;;;;;;2.85;1.40;;;;;;;23.71;33.88;100352.19;10305742;28;20054;-73
2022/08/29 19:07:41;;;;;;;3.13;1.23;;;;;;;23.69;34.07;100348.81;10306582;28;20092;-72
2022/08/29 19:12:43;;;;;;;2.50;1.10;;;;;;;23.67;34.76;100357.19;10309445;28;20052;-73
2022/08/29 19:17:47;;;;;;;4.82;1.60;;;;;;;23.63;34.26;100366.81;10315525;28;20050;-71
2022/08/29 19:22:49;;;;;;;1.90;1.20;;;;;;;23.55;34.33;100364.28;10316881;28;20057;-74
2022/08/29 19:27:50;;;;;;;3.85;1.92;;;;;;;23.45;34.92;100362.81;10316867;28;20050;-73
2022/08/29 19:32:55;;;;;;;3.40;1.10;;;;;;;23.41;34.39;100368.84;10316639;28;20057;-72
2022/08/29 19:37:56;;;;;;;3.60;1.75;;;;;;;23.39;34.96;100373.63;10317576;28;20090;-73
2022/08/29 19:42:59;;;;;;;2.60;1.20;;;;;;;23.28;35.57;100370.50;10319186;28;20057;-72
2022/08/29 19:48:00;;;;;;;3.28;1.63;;;;;;;23.27;35.50;100379.69;10316217;28;20101;-74
2022/08/29 19:53:02;;;;;;;2.20;1.40;;;;;;;23.14;35.93;100378.81;10312461;28;20594;-73
2022/08/29 19:58:04;;;;;;;4.90;1.50;;;;;;;23.10;36.72;100378.34;10309321;28;20801;-71
2022/08/29 20:03:06;;;;;;;4.80;2.22;;;;;;;23.05;36.56;100367.25;10308002;28;20053;-70
2022/08/29 20:08:08;;;;;;;4.63;1.73;;;;;;;23.03;36.23;100377.44;10315030;28;20054;-72
2022/08/29 20:13:10;;;;;;;5.10;1.60;;;;;;;23.01;36.89;100379.53;10311587;28;20052;-74
2022/08/29 20:18:12;;;;;;;8.15;1.55;;;;;;;22.93;35.91;100366.97;10300628;28;20110;-71
2022/08/29 20:23:13;;;;;;;2.65;1.60;;;;;;;22.87;35.32;100376.75;10311294;28;20792;-71
2022/08/29 20:28:15;;;;;;;3.42;1.27;;;;;;;22.77;36.19;100382.56;10309210;28;20063;-73
2022/08/29 20:33:17;;;;;;;5.50;1.67;;;;;;;22.75;36.80;100397.38;10311728;28;20046;-72
2022/08/29 20:38:18;;;;;;;7.40;2.33;;;;;;;22.66;36.09;100393.16;10310580;28;20050;-72
2022/08/29 20:43:20;;;;;;;3.63;1.73;;;;;;;22.57;36.51;100389.75;10327460;28;20768;-74
2022/08/29 20:48:21;;;;;;;3.75;1.38;;;;;;;22.50;36.17;100395.13;10329780;28;20057;-70
2022/08/29 20:53:26;;;;;;;2.92;1.27;;;;;;;22.37;36.35;100405.91;10330074;28;20137;-72
2022/08/29 20:58:33;;;;;;;2.45;1.35;;;;;;;22.28;36.27;100407.03;10329778;28;20389;-73
2022/08/29 21:08:54;;;;;;;4.88;1.92;;;;;;;22.16;37.97;100404.00;10328751;28;20049;-71
2022/08/29 21:13:56;;;;;;;6.25;1.80;;;;;;;22.21;38.24;100413.25;10332957;28;20053;-72
2022/08/29 21:18:57;;;;;;;2.70;1.20;;;;;;;22.20;37.69;100417.00;10338724;28;20050;-73
2022/08/29 21:24:00;;;;;;;5.20;1.65;;;;;;;22.16;38.46;100415.72;10348640;28;20517;-71
2022/08/29 21:29:03;;;;;;;3.58;1.63;;;;;;;22.09;38.80;100422.13;10334157;28;20056;-71
2022/08/29 21:34:06;;;;;;;;;;;;;;;22.06;37.80;100415.19;10331920;28;20046;-73
2022/08/29 21:39:10;;;;;;;2.45;1.48;;;;;;;22.02;38.54;100411.19;10327718;28;19925;-73
2022/08/29 21:44:13;;;;;;;5.00;1.77;;;;;;;21.94;37.87;100423.00;10327372;28;20050;-71
2022/08/29 21:49:18;;;;;;;4.93;2.30;;;;;;;21.83;38.37;100421.66;10326647;28;20400;-73
2022/08/29 21:54:19;;;;;;;3.60;1.88;;;;;;;21.81;38.87;100415.63;10329152;28;20697;-72
2022/08/29 21:59:20;;;;;;;3.70;1.42;;;;;;;21.78;37.77;100417.84;10326203;28;20052;-72
2022/08/29 22:04:23;;;;;;;5.45;1.70;;;;;;;21.74;38.67;100422.81;10330007;28;20061;-70
2022/08/29 22:09:29;;;;;;;4.07;1.52;;;;;;;21.60;39.50;100426.41;10329115;28;20041;-70
2022/08/29 22:19:50;;;;;;;7.20;2.03;;;;;;;21.42;38.90;100427.63;10327199;28;20048;-69
2022/08/29 22:24:52;;;;;;;3.20;1.52;;;;;;;21.38;38.99;100434.47;10327338;28;20182;-71
2022/08/29 22:29:53;;;;;;;6.03;1.90;;;;;;;21.23;38.65;100430.94;10325885;28;20192;-72
2022/08/29 22:34:55;;;;;;;2.30;1.10;;;;;;;21.23;38.99;100433.66;10329334;28;20054;-72
2022/08/29 22:39:56;;;;;;;4.07;1.33;;;;;;;21.23;38.49;100444.47;10326623;28;20073;-73
2022/08/29 22:44:58;;;;;;;2.38;1.33;;;;;;;21.18;38.47;100442.34;10326001;28;20057;-74
2022/08/29 22:50:07;;;;;;;2.85;1.30;;;;;;;21.17;38.80;100455.03;10329794;28;20069;-71
2022/08/29 22:55:12;;;;;;;7.13;1.92;;;;;;;21.09;38.58;100449.75;10328341;28;20042;-71
2022/08/29 23:00:20;;;;;;;2.75;1.75;;;;;;;21.02;39.04;100451.50;10332661;28;20750;-73
2022/08/29 23:05:23;;;;;;;6.43;1.80;;;;;;;20.95;38.57;100453.28;10330187;28;20133;-68
2022/08/29 23:10:24;;;;;;;3.47;1.50;;;;;;;20.88;38.89;100455.06;10333114;28;20053;-72
2022/08/29 23:15:26;;;;;;;3.67;1.33;;;;;;;20.76;39.66;100441.16;10330901;28;20629;-70
2022/08/29 23:20:27;;;;;;;4.63;1.83;;;;;;;20.83;39.67;100445.63;10331869;28;20061;-70
2022/08/29 23:25:29;;;;;;;4.07;1.50;;;;;;;20.88;40.09;100441.53;10334560;28;20049;-72
2022/08/29 23:30:31;;;;;;;4.05;1.10;;;;;;;20.82;39.20;100441.25;10324619;28;20052;-71
2022/08/29 23:35:32;;;;;;;4.45;1.80;;;;;;;20.79;39.18;100446.19;10332681;28;20056;-70
2022/08/29 23:40:35;;;;;;;3.92;1.80;;;;;;;20.71;39.70;100440.88;10332425;28;20049;-70